createdAt,value
2023-03-29T00:00:45.500Z,2.30
2023-03-29T00:03:16.356Z,2.30
2023-03-29T00:05:47.289Z,2.80
2023-03-29T00:08:18.532Z,2.80
2023-03-29T00:10:52.015Z,2.50
2023-03-29T00:13:22.604Z,2.50
2023-03-29T00:15:53.297Z,3.10
2023-03-29T00:18:24.080Z,2.20
2023-03-29T00:20:59.851Z,1.60
2023-03-29T00:23:30.772Z,2.70
2023-03-29T00:26:01.670Z,1.80
2023-03-29T00:28:32.422Z,1.80
2023-03-29T00:31:12.205Z,2.10
2023-03-29T00:33:44.263Z,2.00
2023-03-29T00:36:16.056Z,1.60
2023-03-29T00:38:46.751Z,2.80
2023-03-29T00:41:17.530Z,2.30
2023-03-29T00:44:02.505Z,2.50
2023-03-29T00:46:35.130Z,1.90
2023-03-29T00:49:13.981Z,1.60
2023-03-29T00:51:44.872Z,1.70
2023-03-29T00:54:18.648Z,1.20
2023-03-29T00:56:52.417Z,2.20
2023-03-29T00:59:27.643Z,1.90
2023-03-29T01:02:02.566Z,2.30
2023-03-29T01:04:38.326Z,1.40
2023-03-29T01:07:17.937Z,2.10
2023-03-29T01:09:54.445Z,2.00
2023-03-29T01:12:29.131Z,1.80
2023-03-29T01:15:04.648Z,2.30
2023-03-29T01:17:35.585Z,1.60
2023-03-29T01:20:13.951Z,2.00
2023-03-29T01:23:01.042Z,1.80
2023-03-29T01:25:43.019Z,1.20
2023-03-29T01:28:17.367Z,1.80
2023-03-29T01:30:53.129Z,1.00
2023-03-29T01:33:26.571Z,2.40
2023-03-29T01:36:01.514Z,1.50
2023-03-29T01:38:37.893Z,1.70
2023-03-29T01:41:11.231Z,1.40
2023-03-29T01:43:47.053Z,1.20
2023-03-29T01:46:24.884Z,1.10
2023-03-29T01:49:01.622Z,1.10
2023-03-29T01:51:38.404Z,1.20
2023-03-29T01:54:13.761Z,1.40
2023-03-29T01:56:49.499Z,1.50
2023-03-29T01:59:26.235Z,1.60
2023-03-29T02:02:01.978Z,1.80
2023-03-29T02:04:35.515Z,1.60
2023-03-29T02:07:09.780Z,0.90
2023-03-29T02:09:42.046Z,1.10
2023-03-29T02:12:14.649Z,1.40
2023-03-29T02:14:45.236Z,1.50
2023-03-29T02:17:24.516Z,1.40
2023-03-29T02:20:00.718Z,1.30
2023-03-29T02:22:37.880Z,1.30
2023-03-29T02:25:10.731Z,1.00
2023-03-29T02:30:14.633Z,1.10
2023-03-29T02:32:54.189Z,1.70
2023-03-29T02:35:34.623Z,1.70
2023-03-29T02:38:09.075Z,1.50
2023-03-29T02:40:42.819Z,1.60
2023-03-29T02:43:15.722Z,1.10
2023-03-29T02:45:48.370Z,1.10
2023-03-29T02:48:22.099Z,1.50
2023-03-29T02:50:56.474Z,1.20
2023-03-29T02:53:32.143Z,1.80
2023-03-29T02:56:04.455Z,1.70
2023-03-29T02:58:36.776Z,1.60
2023-03-29T03:01:10.186Z,1.60
2023-03-29T03:03:41.398Z,1.00
2023-03-29T03:06:13.530Z,1.80
2023-03-29T03:08:44.262Z,1.20
2023-03-29T03:11:15.335Z,1.20
2023-03-29T03:13:46.138Z,1.30
2023-03-29T03:16:17.420Z,1.70
2023-03-29T03:18:50.362Z,1.90
2023-03-29T03:21:21.375Z,1.00
2023-03-29T03:23:52.354Z,2.50
2023-03-29T03:26:24.914Z,2.00
2023-03-29T03:28:56.282Z,1.30
2023-03-29T03:31:45.391Z,1.50
2023-03-29T03:34:39.918Z,1.50
2023-03-29T03:37:12.248Z,5.20
2023-03-29T03:39:43.523Z,2.80
2023-03-29T03:42:14.369Z,1.80
2023-03-29T03:44:46.394Z,1.90
2023-03-29T03:47:32.503Z,3.30
2023-03-29T03:50:16.020Z,2.40
2023-03-29T03:52:47.034Z,1.80
2023-03-29T03:55:18.387Z,1.70
2023-03-29T03:57:56.289Z,1.80
2023-03-29T04:00:27.624Z,2.60
2023-03-29T04:03:19.118Z,1.70
2023-03-29T04:05:51.226Z,1.80
2023-03-29T04:08:23.565Z,1.90
2023-03-29T04:11:13.345Z,2.10
2023-03-29T04:13:45.606Z,1.80
2023-03-29T04:16:37.002Z,2.20
2023-03-29T04:19:21.858Z,2.40
2023-03-29T04:21:52.674Z,2.40
2023-03-29T04:24:24.302Z,2.30
2023-03-29T04:27:13.402Z,2.30
2023-03-29T04:29:45.184Z,1.70
2023-03-29T04:32:23.166Z,2.20
2023-03-29T04:35:00.674Z,2.30
2023-03-29T04:37:31.567Z,2.10
2023-03-29T04:40:03.952Z,2.70
2023-03-29T04:45:14.588Z,2.70
2023-03-29T04:48:02.122Z,2.50
2023-03-29T04:50:33.572Z,2.50
2023-03-29T04:53:04.225Z,2.60
2023-03-29T04:55:35.681Z,3.10
2023-03-29T04:58:06.515Z,2.40
2023-03-29T05:00:38.659Z,2.80
2023-03-29T05:03:29.344Z,2.30
2023-03-29T05:06:07.742Z,2.40
2023-03-29T05:08:40.999Z,2.60
2023-03-29T05:11:17.589Z,2.10
2023-03-29T05:13:48.310Z,5.10
2023-03-29T05:16:19.323Z,2.40
2023-03-29T05:18:50.076Z,2.50
2023-03-29T05:21:22.051Z,2.30
2023-03-29T05:23:53.280Z,2.80
2023-03-29T05:26:52.001Z,1.80
2023-03-29T05:29:23.457Z,2.70
2023-03-29T05:32:00.667Z,2.00
2023-03-29T05:34:31.989Z,1.90
2023-03-29T05:37:05.665Z,1.90
2023-03-29T05:39:44.151Z,2.00
2023-03-29T05:42:15.761Z,2.00
2023-03-29T05:44:54.830Z,1.70
2023-03-29T05:47:25.893Z,1.70
2023-03-29T05:49:57.290Z,1.70
2023-03-29T05:52:28.478Z,2.20
2023-03-29T05:54:59.918Z,2.00
2023-03-29T05:57:31.810Z,2.20
2023-03-29T06:00:16.885Z,2.60
2023-03-29T06:02:48.175Z,1.90
2023-03-29T06:05:19.866Z,2.70
2023-03-29T06:08:01.942Z,2.20
2023-03-29T06:10:51.897Z,2.50
2023-03-29T06:13:39.632Z,2.00
2023-03-29T06:16:13.418Z,2.70
2023-03-29T06:18:45.029Z,2.90
2023-03-29T06:21:16.815Z,2.10
2023-03-29T06:23:47.563Z,2.60
2023-03-29T06:26:20.724Z,1.90
2023-03-29T06:28:52.522Z,2.00
2023-03-29T06:31:24.369Z,2.10
2023-03-29T06:33:55.573Z,2.70
2023-03-29T06:36:35.466Z,2.10
2023-03-29T06:39:08.714Z,2.20
2023-03-29T06:41:58.308Z,1.70
2023-03-29T06:44:54.689Z,1.60
2023-03-29T06:47:30.972Z,2.00
2023-03-29T06:50:02.096Z,2.10
2023-03-29T06:52:44.877Z,2.00
2023-03-29T06:55:18.481Z,2.40
2023-03-29T06:57:49.228Z,1.90
2023-03-29T07:00:28.113Z,2.30
2023-03-29T07:03:13.545Z,2.20
2023-03-29T07:05:44.982Z,2.30
2023-03-29T07:08:18.749Z,3.00
2023-03-29T07:11:03.284Z,2.60
2023-03-29T07:13:50.993Z,2.40
2023-03-29T07:16:23.241Z,2.70
2023-03-29T07:19:19.754Z,2.50
2023-03-29T07:22:00.193Z,2.00
2023-03-29T07:24:40.626Z,1.80
2023-03-29T07:27:11.533Z,2.30
2023-03-29T07:29:42.164Z,1.60
2023-03-29T07:32:13.186Z,2.20
2023-03-29T07:34:48.425Z,2.30
2023-03-29T07:37:27.379Z,1.90
2023-03-29T07:40:00.441Z,0.80
2023-03-29T07:42:31.317Z,0.80
2023-03-29T07:45:02.403Z,2.10
2023-03-29T07:47:38.385Z,1.90
2023-03-29T07:50:11.588Z,2.20
2023-03-29T07:52:43.483Z,2.00
2023-03-29T07:55:15.469Z,1.70
2023-03-29T07:58:06.633Z,1.50
2023-03-29T08:00:38.176Z,1.50
2023-03-29T08:03:27.905Z,1.90
2023-03-29T08:05:58.788Z,1.50
2023-03-29T08:08:29.642Z,1.30
2023-03-29T08:11:10.197Z,2.40
2023-03-29T08:13:59.018Z,1.80
2023-03-29T08:16:29.877Z,1.50
2023-03-29T08:19:10.256Z,0.90
2023-03-29T08:21:52.049Z,1.80
2023-03-29T08:24:23.116Z,1.60
2023-03-29T08:26:58.475Z,0.90
2023-03-29T08:29:29.257Z,1.90
2023-03-29T08:34:46.914Z,1.20
2023-03-29T08:37:25.975Z,1.70
2023-03-29T08:39:57.941Z,2.30
2023-03-29T08:43:06.237Z,2.20
2023-03-29T08:46:01.625Z,2.10
2023-03-29T08:48:36.770Z,1.70
2023-03-29T08:51:14.403Z,2.50
2023-03-29T08:53:52.596Z,1.90
2023-03-29T08:56:47.765Z,2.00
2023-03-29T08:59:50.164Z,1.80
2023-03-29T09:02:26.228Z,1.00
2023-03-29T09:05:09.197Z,1.90
2023-03-29T09:07:49.295Z,2.00
2023-03-29T09:10:23.122Z,2.00
2023-03-29T09:13:18.232Z,1.80
2023-03-29T09:16:01.184Z,1.80
2023-03-29T09:18:49.467Z,1.90
2023-03-29T09:21:27.391Z,2.30
2023-03-29T09:24:15.646Z,2.20
2023-03-29T09:27:02.608Z,1.90
2023-03-29T09:29:51.764Z,1.70
2023-03-29T09:32:29.454Z,1.10
2023-03-29T09:35:18.756Z,2.30
2023-03-29T09:37:52.618Z,1.90
2023-03-29T09:40:27.184Z,2.50
2023-03-29T09:43:30.778Z,2.00
2023-03-29T09:46:06.167Z,1.50
2023-03-29T09:48:42.315Z,1.50
2023-03-29T09:51:15.717Z,2.40
2023-03-29T09:56:32.846Z,1.60
2023-03-29T09:59:13.881Z,1.90
2023-03-29T10:01:46.542Z,2.30
2023-03-29T10:04:18.873Z,2.20
2023-03-29T10:06:55.234Z,2.10
2023-03-29T10:09:27.180Z,2.30
2023-03-29T10:12:07.261Z,2.70
2023-03-29T10:14:42.487Z,2.30
2023-03-29T10:17:18.081Z,1.90
2023-03-29T10:19:54.287Z,1.50
2023-03-29T10:22:28.524Z,2.20
2023-03-29T10:24:59.844Z,1.90
2023-03-29T10:27:34.799Z,1.40
2023-03-29T10:30:14.042Z,1.80
2023-03-29T10:32:45.253Z,2.00
2023-03-29T10:35:22.810Z,2.00
2023-03-29T10:37:57.674Z,1.70
2023-03-29T10:40:32.878Z,1.70
2023-03-29T10:43:14.022Z,1.90
2023-03-29T10:45:45.012Z,1.70
2023-03-29T10:48:17.966Z,2.70
2023-03-29T10:50:53.353Z,1.80
2023-03-29T10:53:27.673Z,1.70
2023-03-29T10:56:11.669Z,1.70
2023-03-29T10:58:55.434Z,1.90
2023-03-29T11:01:35.911Z,2.30
2023-03-29T11:04:26.349Z,2.40
2023-03-29T11:07:12.200Z,2.30
2023-03-29T11:09:52.859Z,1.40
2023-03-29T11:12:29.253Z,2.60
2023-03-29T11:15:13.044Z,2.40
2023-03-29T11:17:56.621Z,2.60
2023-03-29T11:20:35.204Z,2.60
2023-03-29T11:23:19.522Z,2.00
2023-03-29T11:26:04.073Z,2.30
2023-03-29T11:28:44.268Z,2.80
2023-03-29T11:31:25.828Z,2.80
2023-03-29T11:34:08.020Z,3.40
2023-03-29T11:36:50.411Z,3.10
2023-03-29T11:39:29.522Z,3.20
2023-03-29T11:42:09.353Z,3.00
2023-03-29T11:44:41.918Z,2.80
2023-03-29T11:47:17.613Z,3.20
2023-03-29T11:49:54.418Z,3.90
2023-03-29T11:52:29.717Z,3.20
2023-03-29T11:55:04.718Z,3.70
2023-03-29T11:57:40.171Z,3.00
2023-03-29T12:00:15.772Z,3.70
2023-03-29T12:02:52.125Z,4.60
2023-03-29T12:05:27.723Z,4.10
2023-03-29T12:08:04.819Z,3.90
2023-03-29T12:10:39.828Z,4.70
2023-03-29T12:13:17.775Z,3.60
2023-03-29T12:15:55.037Z,3.50
2023-03-29T12:18:28.950Z,3.70
2023-03-29T12:21:03.325Z,3.80
2023-03-29T12:23:36.271Z,4.00
2023-03-29T12:26:18.221Z,4.10
2023-03-29T12:29:05.543Z,4.30
2023-03-29T12:31:43.660Z,3.30
2023-03-29T12:34:42.395Z,4.00
2023-03-29T12:37:58.916Z,3.70
2023-03-29T12:41:00.781Z,3.80
2023-03-29T12:43:51.413Z,4.50
2023-03-29T12:47:00.490Z,4.40
2023-03-29T12:49:34.042Z,4.30
2023-03-29T12:52:09.512Z,3.90
2023-03-29T12:54:40.245Z,4.30
2023-03-29T12:57:27.464Z,4.10
2023-03-29T13:00:10.555Z,3.80
2023-03-29T13:02:41.320Z,3.90
2023-03-29T13:05:33.770Z,4.60
2023-03-29T13:08:23.720Z,4.00
2023-03-29T13:10:58.748Z,4.30
2023-03-29T13:13:34.399Z,4.50
2023-03-29T13:16:19.952Z,3.80
2023-03-29T13:19:17.213Z,3.90
2023-03-29T13:21:58.911Z,4.30
2023-03-29T13:24:46.111Z,5.10
2023-03-29T13:27:29.069Z,5.50
2023-03-29T13:30:25.146Z,4.90
2023-03-29T13:33:16.162Z,4.80
2023-03-29T13:35:59.333Z,5.40
2023-03-29T13:38:33.179Z,5.50
2023-03-29T13:41:07.209Z,5.50
2023-03-29T13:43:50.968Z,6.00
2023-03-29T13:46:36.496Z,5.50
2023-03-29T13:49:19.894Z,5.90
2023-03-29T13:52:07.172Z,5.50
2023-03-29T13:54:42.733Z,5.30
2023-03-29T13:57:20.707Z,5.90
2023-03-29T13:59:57.031Z,6.80
2023-03-29T14:02:38.161Z,6.60
2023-03-29T14:05:13.815Z,7.00
2023-03-29T14:07:50.013Z,6.60
2023-03-29T14:10:23.771Z,7.50
2023-03-29T14:12:56.818Z,6.70
2023-03-29T14:15:43.899Z,6.70
2023-03-29T14:18:17.233Z,6.60
2023-03-29T14:20:50.895Z,6.40
2023-03-29T14:23:24.679Z,6.90
2023-03-29T14:25:55.358Z,5.80
2023-03-29T14:28:28.145Z,6.40
2023-03-29T14:30:59.043Z,6.20
2023-03-29T14:33:34.494Z,5.70
2023-03-29T14:36:06.926Z,6.20
2023-03-29T14:38:39.064Z,6.40
2023-03-29T14:41:10.132Z,6.20
2023-03-29T14:43:41.483Z,5.20
2023-03-29T14:46:14.060Z,5.30
2023-03-29T14:51:15.311Z,5.80
2023-03-29T14:53:47.836Z,6.00
2023-03-29T14:56:24.093Z,5.60
2023-03-29T14:58:57.084Z,5.70
2023-03-29T15:01:29.049Z,6.00
2023-03-29T15:04:06.474Z,5.70
2023-03-29T15:06:43.986Z,5.60
2023-03-29T15:09:18.370Z,5.80
2023-03-29T15:11:56.498Z,4.90
2023-03-29T15:14:33.692Z,5.20
2023-03-29T15:17:07.588Z,6.10
2023-03-29T15:19:38.941Z,6.10
2023-03-29T15:22:11.777Z,5.60
2023-03-29T15:24:49.807Z,5.30
2023-03-29T15:27:21.513Z,5.10
2023-03-29T15:30:00.480Z,5.70
2023-03-29T15:32:38.266Z,5.20
2023-03-29T15:35:22.953Z,6.60
2023-03-29T15:37:55.210Z,5.60
2023-03-29T15:40:28.371Z,3.50
2023-03-29T15:42:59.413Z,5.10
2023-03-29T15:45:29.972Z,5.40
2023-03-29T15:48:02.040Z,5.20
2023-03-29T15:50:34.040Z,4.30
2023-03-29T15:53:14.730Z,4.30
2023-03-29T15:55:48.756Z,4.20
2023-03-29T15:58:21.483Z,3.40
2023-03-29T16:03:24.711Z,3.10
2023-03-29T16:05:56.955Z,3.50
2023-03-29T16:08:27.777Z,3.90
2023-03-29T16:10:58.701Z,3.60
2023-03-29T16:13:29.701Z,3.10
2023-03-29T16:16:00.597Z,2.40
2023-03-29T16:18:31.451Z,3.20
2023-03-29T16:21:02.095Z,3.10
2023-03-29T16:23:33.327Z,3.10
2023-03-29T16:26:05.352Z,3.40
2023-03-29T16:28:37.043Z,3.60
2023-03-29T16:31:08.463Z,4.70
2023-03-29T16:33:39.241Z,4.60
2023-03-29T16:36:12.347Z,4.60
2023-03-29T16:38:43.226Z,4.80
2023-03-29T16:41:17.394Z,4.80
2023-03-29T16:43:48.136Z,4.60
2023-03-29T16:46:18.889Z,5.30
2023-03-29T16:48:51.443Z,4.40
2023-03-29T16:51:22.094Z,4.90
2023-03-29T16:53:53.128Z,4.60
2023-03-29T16:56:23.867Z,6.10
2023-03-29T16:58:54.823Z,6.80
2023-03-29T17:01:25.606Z,5.40
2023-03-29T17:03:57.211Z,5.90
2023-03-29T17:06:28.307Z,6.20
2023-03-29T17:08:59.050Z,6.20
2023-03-29T17:11:29.710Z,6.70
2023-03-29T17:14:00.724Z,6.00
2023-03-29T17:16:31.649Z,6.20
2023-03-29T17:19:02.510Z,6.00
2023-03-29T17:21:33.911Z,7.50
2023-03-29T17:24:04.950Z,6.60
2023-03-29T17:26:35.687Z,6.80
2023-03-29T17:29:07.001Z,6.30
2023-03-29T17:31:41.911Z,7.60
2023-03-29T17:34:12.931Z,6.70
2023-03-29T17:36:45.666Z,6.30
2023-03-29T17:41:47.426Z,6.40
2023-03-29T17:44:18.088Z,6.40
2023-03-29T17:46:49.050Z,6.30
2023-03-29T17:49:19.875Z,6.80
2023-03-29T17:51:50.771Z,6.50
2023-03-29T17:54:21.451Z,6.60
2023-03-29T17:56:52.281Z,6.40
2023-03-29T17:59:22.950Z,6.00
2023-03-29T18:01:53.717Z,6.10
2023-03-29T18:04:24.542Z,7.10
2023-03-29T18:06:55.286Z,6.40
2023-03-29T18:09:29.401Z,6.20
2023-03-29T18:12:01.815Z,5.80
2023-03-29T18:14:32.515Z,4.30
2023-03-29T18:17:04.167Z,6.80
2023-03-29T18:19:34.866Z,5.10
2023-03-29T18:22:05.595Z,6.20
2023-03-29T18:24:36.734Z,7.70
2023-03-29T18:27:07.780Z,6.60
2023-03-29T18:29:38.491Z,6.40
2023-03-29T18:32:09.743Z,6.20
2023-03-29T18:34:40.504Z,6.60
2023-03-29T18:37:15.061Z,5.80
2023-03-29T18:39:47.962Z,6.20
2023-03-29T18:42:20.441Z,7.10
2023-03-29T18:44:52.133Z,7.80
2023-03-29T18:47:23.057Z,6.80
2023-03-29T18:49:53.942Z,6.70
2023-03-29T18:52:24.791Z,2.80
2023-03-29T18:54:55.920Z,6.90
2023-03-29T18:57:26.942Z,7.10
2023-03-29T18:59:57.953Z,6.40
2023-03-29T19:02:29.016Z,7.10
2023-03-29T19:05:01.846Z,6.30
2023-03-29T19:10:02.252Z,5.80
2023-03-29T19:12:33.882Z,6.40
2023-03-29T19:15:05.736Z,5.80
2023-03-29T19:17:36.491Z,6.60
2023-03-29T19:20:10.085Z,6.20
2023-03-29T19:22:41.219Z,6.20
2023-03-29T19:25:13.516Z,5.90
2023-03-29T19:27:44.316Z,6.10
2023-03-29T19:30:18.158Z,6.60
2023-03-29T19:32:49.375Z,6.40
2023-03-29T19:35:20.466Z,5.80
2023-03-29T19:37:51.704Z,6.00
2023-03-29T19:40:22.730Z,6.30
2023-03-29T19:42:53.442Z,6.00
2023-03-29T19:45:24.764Z,6.40
2023-03-29T19:48:02.565Z,5.90
2023-03-29T19:53:03.467Z,5.50
2023-03-29T19:55:34.265Z,5.80
2023-03-29T19:58:05.642Z,6.30
2023-03-29T20:00:38.911Z,5.80
2023-03-29T20:03:10.550Z,6.20
2023-03-29T20:05:41.966Z,5.80
2023-03-29T20:08:12.778Z,6.60
2023-03-29T20:10:43.542Z,5.90
2023-03-29T20:13:17.275Z,6.60
2023-03-29T20:15:56.440Z,5.80
2023-03-29T20:18:27.290Z,6.30
2023-03-29T20:20:57.993Z,4.90
2023-03-29T20:23:28.770Z,4.90
2023-03-29T20:26:00.071Z,5.70
2023-03-29T20:28:31.582Z,5.90
2023-03-29T20:31:05.706Z,5.20
2023-03-29T20:33:37.004Z,5.00
2023-03-29T20:36:10.064Z,6.10
2023-03-29T20:38:41.083Z,5.70
2023-03-29T20:41:12.248Z,5.40
2023-03-29T20:43:43.108Z,5.50
2023-03-29T20:46:18.407Z,5.00
2023-03-29T20:48:54.112Z,5.90
2023-03-29T20:51:28.139Z,5.10
2023-03-29T20:54:02.786Z,5.50
2023-03-29T20:56:35.676Z,5.40
2023-03-29T20:59:07.330Z,5.90
2023-03-29T21:01:40.763Z,5.50
2023-03-29T21:04:13.094Z,5.10
2023-03-29T21:06:45.825Z,5.40
2023-03-29T21:11:46.080Z,5.10
2023-03-29T21:14:19.699Z,5.10
2023-03-29T21:16:51.270Z,5.70
2023-03-29T21:19:24.300Z,4.80
2023-03-29T21:21:55.246Z,4.10
2023-03-29T21:24:28.667Z,5.80
2023-03-29T21:27:02.159Z,5.70
2023-03-29T21:29:33.449Z,5.50
2023-03-29T21:32:04.835Z,4.70
2023-03-29T21:34:35.870Z,5.20
2023-03-29T21:37:08.181Z,6.00
2023-03-29T21:39:39.939Z,5.20
2023-03-29T21:42:11.041Z,5.20
2023-03-29T21:44:42.160Z,4.90
2023-03-29T21:47:13.464Z,5.10
2023-03-29T21:49:45.784Z,5.00
2023-03-29T21:52:16.705Z,5.70
2023-03-29T21:54:50.693Z,4.50
2023-03-29T21:57:23.632Z,5.60
2023-03-29T21:59:55.079Z,4.30
2023-03-29T22:02:28.971Z,5.70
2023-03-29T22:05:04.915Z,5.40
2023-03-29T22:07:45.694Z,5.70
2023-03-29T22:10:16.764Z,4.60
2023-03-29T22:12:48.189Z,4.90
2023-03-29T22:15:23.093Z,5.20
2023-03-29T22:17:57.811Z,5.10
2023-03-29T22:20:31.020Z,4.80
2023-03-29T22:23:05.216Z,5.00
2023-03-29T22:25:37.791Z,5.00
2023-03-29T22:28:08.858Z,4.70
2023-03-29T22:30:39.781Z,6.50
2023-03-29T22:33:11.800Z,4.90
2023-03-29T22:35:43.681Z,5.80
2023-03-29T22:38:15.320Z,4.90
2023-03-29T22:40:49.058Z,5.10
2023-03-29T22:43:19.837Z,5.60
2023-03-29T22:45:50.890Z,4.70
2023-03-29T22:48:21.668Z,4.90
2023-03-29T22:50:52.426Z,5.20
2023-03-29T22:53:23.097Z,5.00
2023-03-29T22:55:54.032Z,4.30
2023-03-29T22:58:24.859Z,4.10
2023-03-29T23:00:55.651Z,4.60
2023-03-29T23:03:26.733Z,3.60
2023-03-29T23:05:59.216Z,4.40
2023-03-29T23:08:30.995Z,4.60
2023-03-29T23:11:02.858Z,4.70
2023-03-29T23:13:35.319Z,4.20
2023-03-29T23:16:07.183Z,3.70
2023-03-29T23:18:38.690Z,4.30
2023-03-29T23:21:10.507Z,3.10
2023-03-29T23:23:42.242Z,4.10
2023-03-29T23:26:12.984Z,4.40
2023-03-29T23:28:44.708Z,4.00
2023-03-29T23:31:17.923Z,4.30
2023-03-29T23:33:49.428Z,4.10
2023-03-29T23:36:22.972Z,3.70
2023-03-29T23:38:53.666Z,3.90
2023-03-29T23:41:28.387Z,3.90
2023-03-29T23:43:59.250Z,3.80
2023-03-29T23:46:30.177Z,4.00
2023-03-29T23:49:01.059Z,4.10
2023-03-29T23:51:31.749Z,4.30
2023-03-29T23:54:02.627Z,3.60
2023-03-29T23:56:33.480Z,3.90
2023-03-29T23:59:04.482Z,4.10
